sensor_id;sensor_type;location;lat;lon;timestamp;pressure;altitude;pressure_sealevel;temperature;humidity
71476;BME280;59286;59.274;17.974;2023-08-06T00:00:27;100893.28;;;12.73;100.00
71476;BME280;59286;59.274;17.974;2023-08-06T00:02:53;100886.00;;;12.70;100.00
71476;BME280;59286;59.274;17.974;2023-08-06T00:05:18;100868.44;;;12.57;100.00
71476;BME280;59286;59.274;17.974;2023-08-06T00:07:49;100891.91;;;12.76;100.00
71476;BME280;59286;59.274;17.974;2023-08-06T00:10:15;100890.78;;;12.68;100.00
71476;BME280;59286;59.274;17.974;2023-08-06T00:12:40;100887.06;;;12.69;100.00
71476;BME280;59286;59.274;17.974;2023-08-06T00:15:06;100898.56;;;12.73;100.00
71476;BME280;59286;59.274;17.974;2023-08-06T00:17:31;100887.69;;;12.66;100.00
71476;BME280;59286;59.274;17.974;2023-08-06T00:19:57;100887.22;;;12.64;100.00
71476;BME280;59286;59.274;17.974;2023-08-06T00:22:22;100889.19;;;12.58;100.00
71476;BME280;59286;59.274;17.974;2023-08-06T00:24:47;100889.25;;;12.45;100.00
71476;BME280;59286;59.274;17.974;2023-08-06T00:27:13;100887.00;;;12.38;100.00
71476;BME280;59286;59.274;17.974;2023-08-06T00:29:38;100887.66;;;12.44;100.00
71476;BME280;59286;59.274;17.974;2023-08-06T00:32:03;100876.03;;;12.36;100.00
71476;BME280;59286;59.274;17.974;2023-08-06T00:34:29;100848.97;;;12.14;100.00
71476;BME280;59286;59.274;17.974;2023-08-06T00:36:54;100866.16;;;12.20;100.00
71476;BME280;59286;59.274;17.974;2023-08-06T00:39:20;100867.44;;;12.22;100.00
71476;BME280;59286;59.274;17.974;2023-08-06T00:41:45;100887.28;;;12.28;100.00
71476;BME280;59286;59.274;17.974;2023-08-06T00:44:10;100877.34;;;12.25;100.00
71476;BME280;59286;59.274;17.974;2023-08-06T00:46:36;100880.13;;;12.29;100.00
71476;BME280;59286;59.274;17.974;2023-08-06T00:49:01;100890.06;;;12.32;100.00
71476;BME280;59286;59.274;17.974;2023-08-06T00:51:27;100890.66;;;12.29;100.00
71476;BME280;59286;59.274;17.974;2023-08-06T00:53:52;100887.66;;;12.22;100.00
71476;BME280;59286;59.274;17.974;2023-08-06T00:56:18;100883.50;;;12.21;100.00
71476;BME280;59286;59.274;17.974;2023-08-06T00:58:45;100885.03;;;12.22;100.00
71476;BME280;59286;59.274;17.974;2023-08-06T01:01:10;100887.78;;;12.17;100.00
71476;BME280;59286;59.274;17.974;2023-08-06T01:03:36;100896.28;;;12.14;100.00
71476;BME280;59286;59.274;17.974;2023-08-06T01:06:01;100892.88;;;12.13;100.00
71476;BME280;59286;59.274;17.974;2023-08-06T01:08:37;100891.03;;;12.14;100.00
71476;BME280;59286;59.274;17.974;2023-08-06T01:11:21;100883.84;;;12.06;100.00
71476;BME280;59286;59.274;17.974;2023-08-06T01:14:20;100892.78;;;12.05;100.00
71476;BME280;59286;59.274;17.974;2023-08-06T01:16:43;100881.22;;;12.06;100.00
71476;BME280;59286;59.274;17.974;2023-08-06T01:19:16;100891.72;;;12.06;100.00
71476;BME280;59286;59.274;17.974;2023-08-06T01:21:42;100896.97;;;12.06;100.00
71476;BME280;59286;59.274;17.974;2023-08-06T01:24:07;100887.44;;;11.96;100.00
71476;BME280;59286;59.274;17.974;2023-08-06T01:26:38;100880.25;;;12.02;100.00
71476;BME280;59286;59.274;17.974;2023-08-06T01:31:43;100880.25;;;12.02;100.00
71476;BME280;59286;59.274;17.974;2023-08-06T01:34:17;100876.66;;;11.98;100.00
71476;BME280;59286;59.274;17.974;2023-08-06T01:36:46;100875.69;;;11.94;100.00
71476;BME280;59286;59.274;17.974;2023-08-06T01:39:11;100873.53;;;11.96;100.00
71476;BME280;59286;59.274;17.974;2023-08-06T01:41:36;100875.09;;;11.97;100.00
71476;BME280;59286;59.274;17.974;2023-08-06T01:44:02;100864.31;;;11.85;100.00
71476;BME280;59286;59.274;17.974;2023-08-06T01:46:27;100860.03;;;11.89;100.00
71476;BME280;59286;59.274;17.974;2023-08-06T01:48:52;100869.19;;;11.91;100.00
71476;BME280;59286;59.274;17.974;2023-08-06T01:51:18;100877.72;;;11.97;100.00
71476;BME280;59286;59.274;17.974;2023-08-06T01:53:43;100866.84;;;11.90;100.00
71476;BME280;59286;59.274;17.974;2023-08-06T01:56:08;100869.47;;;11.90;100.00
71476;BME280;59286;59.274;17.974;2023-08-06T01:58:34;100861.69;;;11.85;100.00
71476;BME280;59286;59.274;17.974;2023-08-06T02:01:01;100874.25;;;11.88;100.00
71476;BME280;59286;59.274;17.974;2023-08-06T02:03:26;100852.47;;;11.74;100.00
71476;BME280;59286;59.274;17.974;2023-08-06T02:05:54;100863.94;;;11.78;100.00
71476;BME280;59286;59.274;17.974;2023-08-06T02:08:19;100863.94;;;11.78;100.00
71476;BME280;59286;59.274;17.974;2023-08-06T02:10:45;100866.09;;;11.76;100.00
71476;BME280;59286;59.274;17.974;2023-08-06T02:13:11;100861.94;;;11.75;100.00
71476;BME280;59286;59.274;17.974;2023-08-06T02:15:42;100861.44;;;11.73;100.00
71476;BME280;59286;59.274;17.974;2023-08-06T02:18:07;100861.44;;;11.73;100.00
71476;BME280;59286;59.274;17.974;2023-08-06T02:20:32;100871.53;;;11.79;100.00
71476;BME280;59286;59.274;17.974;2023-08-06T02:22:57;100868.72;;;11.76;100.00
71476;BME280;59286;59.274;17.974;2023-08-06T02:25:24;100858.69;;;11.64;100.00
71476;BME280;59286;59.274;17.974;2023-08-06T02:27:49;100848.91;;;11.56;100.00
71476;BME280;59286;59.274;17.974;2023-08-06T02:30:14;100867.88;;;11.66;100.00
71476;BME280;59286;59.274;17.974;2023-08-06T02:32:40;100854.63;;;11.58;100.00
71476;BME280;59286;59.274;17.974;2023-08-06T02:35:05;100859.88;;;11.58;100.00
71476;BME280;59286;59.274;17.974;2023-08-06T02:37:33;100867.34;;;11.64;100.00
71476;BME280;59286;59.274;17.974;2023-08-06T02:39:59;100859.28;;;11.61;100.00
71476;BME280;59286;59.274;17.974;2023-08-06T02:42:24;100855.88;;;11.60;100.00
71476;BME280;59286;59.274;17.974;2023-08-06T02:44:52;100853.84;;;11.57;100.00
71476;BME280;59286;59.274;17.974;2023-08-06T02:47:17;100868.44;;;11.63;100.00
71476;BME280;59286;59.274;17.974;2023-08-06T02:49:43;100868.16;;;11.65;100.00
71476;BME280;59286;59.274;17.974;2023-08-06T02:52:08;100858.13;;;11.53;100.00
71476;BME280;59286;59.274;17.974;2023-08-06T02:54:34;100862.22;;;11.59;100.00
71476;BME280;59286;59.274;17.974;2023-08-06T02:56:59;100869.97;;;11.64;100.00
71476;BME280;59286;59.274;17.974;2023-08-06T02:59:24;100873.13;;;11.66;100.00
71476;BME280;59286;59.274;17.974;2023-08-06T03:01:50;100870.09;;;11.59;100.00
71476;BME280;59286;59.274;17.974;2023-08-06T03:04:15;100879.81;;;11.59;100.00
71476;BME280;59286;59.274;17.974;2023-08-06T03:06:42;100887.69;;;11.59;100.00
71476;BME280;59286;59.274;17.974;2023-08-06T03:09:08;100882.44;;;11.59;100.00
71476;BME280;59286;59.274;17.974;2023-08-06T03:11:33;100886.13;;;11.58;100.00
71476;BME280;59286;59.274;17.974;2023-08-06T03:13:58;100887.38;;;11.60;100.00
71476;BME280;59286;59.274;17.974;2023-08-06T03:16:24;100889.44;;;11.63;100.00
71476;BME280;59286;59.274;17.974;2023-08-06T03:18:49;100897.59;;;11.62;100.00
71476;BME280;59286;59.274;17.974;2023-08-06T03:21:14;100898.97;;;11.59;100.00
71476;BME280;59286;59.274;17.974;2023-08-06T03:23:40;100902.66;;;11.58;100.00
71476;BME280;59286;59.274;17.974;2023-08-06T03:26:05;100908.88;;;11.62;100.00
71476;BME280;59286;59.274;17.974;2023-08-06T03:28:30;100917.66;;;11.72;100.00
71476;BME280;59286;59.274;17.974;2023-08-06T03:31:02;100919.88;;;11.78;100.00
71476;BME280;59286;59.274;17.974;2023-08-06T03:33:28;100905.31;;;11.72;100.00
71476;BME280;59286;59.274;17.974;2023-08-06T03:35:53;100903.94;;;11.75;100.00
71476;BME280;59286;59.274;17.974;2023-08-06T03:38:19;100901.81;;;11.77;100.00
71476;BME280;59286;59.274;17.974;2023-08-06T03:40:46;100902.19;;;11.84;100.00
71476;BME280;59286;59.274;17.974;2023-08-06T03:43:12;100905.09;;;11.82;100.00
71476;BME280;59286;59.274;17.974;2023-08-06T03:45:37;100902.25;;;11.92;100.00
71476;BME280;59286;59.274;17.974;2023-08-06T03:48:02;100899.50;;;11.97;100.00
71476;BME280;59286;59.274;17.974;2023-08-06T03:50:28;100903.75;;;12.07;100.00
71476;BME280;59286;59.274;17.974;2023-08-06T03:52:53;100902.09;;;12.11;100.00
71476;BME280;59286;59.274;17.974;2023-08-06T03:55:18;100890.91;;;12.19;100.00
71476;BME280;59286;59.274;17.974;2023-08-06T03:57:44;100894.00;;;12.21;100.00
71476;BME280;59286;59.274;17.974;2023-08-06T04:00:09;100902.13;;;12.33;100.00
71476;BME280;59286;59.274;17.974;2023-08-06T04:02:35;100900.94;;;12.39;100.00
71476;BME280;59286;59.274;17.974;2023-08-06T04:05:01;100907.38;;;12.55;100.00
71476;BME280;59286;59.274;17.974;2023-08-06T04:07:26;100892.09;;;12.57;100.00
71476;BME280;59286;59.274;17.974;2023-08-06T04:09:57;100896.50;;;12.70;100.00
71476;BME280;59286;59.274;17.974;2023-08-06T04:12:23;100900.34;;;12.86;100.00
71476;BME280;59286;59.274;17.974;2023-08-06T04:14:49;100902.34;;;12.89;100.00
71476;BME280;59286;59.274;17.974;2023-08-06T04:17:15;100903.16;;;12.98;100.00
71476;BME280;59286;59.274;17.974;2023-08-06T04:19:40;100900.16;;;13.05;100.00
71476;BME280;59286;59.274;17.974;2023-08-06T04:22:05;100887.03;;;13.13;100.00
71476;BME280;59286;59.274;17.974;2023-08-06T04:24:31;100876.53;;;13.22;100.00
71476;BME280;59286;59.274;17.974;2023-08-06T04:26:57;100876.81;;;13.20;100.00
71476;BME280;59286;59.274;17.974;2023-08-06T04:29:22;100870.03;;;13.28;100.00
71476;BME280;59286;59.274;17.974;2023-08-06T04:31:47;100864.66;;;13.33;100.00
71476;BME280;59286;59.274;17.974;2023-08-06T04:34:12;100871.31;;;13.39;100.00
71476;BME280;59286;59.274;17.974;2023-08-06T04:36:38;100873.97;;;13.47;100.00
71476;BME280;59286;59.274;17.974;2023-08-06T04:39:04;100865.50;;;13.59;100.00
71476;BME280;59286;59.274;17.974;2023-08-06T04:41:29;100872.63;;;13.67;100.00
71476;BME280;59286;59.274;17.974;2023-08-06T04:43:56;100881.16;;;13.73;100.00
71476;BME280;59286;59.274;17.974;2023-08-06T04:46:21;100878.03;;;13.71;100.00
71476;BME280;59286;59.274;17.974;2023-08-06T04:48:47;100874.34;;;13.80;100.00
71476;BME280;59286;59.274;17.974;2023-08-06T04:51:12;100883.06;;;13.98;100.00
71476;BME280;59286;59.274;17.974;2023-08-06T04:53:38;100889.72;;;14.12;100.00
71476;BME280;59286;59.274;17.974;2023-08-06T04:56:03;100888.78;;;14.25;100.00
71476;BME280;59286;59.274;17.974;2023-08-06T04:58:28;100876.56;;;14.38;100.00
71476;BME280;59286;59.274;17.974;2023-08-06T05:00:54;100875.13;;;14.49;100.00
71476;BME280;59286;59.274;17.974;2023-08-06T05:03:19;100871.44;;;14.50;100.00
71476;BME280;59286;59.274;17.974;2023-08-06T05:05:46;100875.44;;;14.65;100.00
71476;BME280;59286;59.274;17.974;2023-08-06T05:08:14;100874.94;;;14.80;100.00
71476;BME280;59286;59.274;17.974;2023-08-06T05:10:42;100861.88;;;14.83;100.00
71476;BME280;59286;59.274;17.974;2023-08-06T05:13:08;100875.31;;;15.07;100.00
71476;BME280;59286;59.274;17.974;2023-08-06T05:15:33;100870.41;;;15.26;100.00
71476;BME280;59286;59.274;17.974;2023-08-06T05:17:58;100857.28;;;15.38;100.00
71476;BME280;59286;59.274;17.974;2023-08-06T05:20:24;100865.00;;;15.52;99.00
71476;BME280;59286;59.274;17.974;2023-08-06T05:22:49;100872.50;;;15.71;98.54
71476;BME280;59286;59.274;17.974;2023-08-06T05:25:14;100862.28;;;15.90;99.11
71476;BME280;59286;59.274;17.974;2023-08-06T05:27:40;100866.38;;;16.20;98.53
71476;BME280;59286;59.274;17.974;2023-08-06T05:30:05;100859.16;;;16.29;98.48
71476;BME280;59286;59.274;17.974;2023-08-06T05:32:31;100858.88;;;16.42;97.34
71476;BME280;59286;59.274;17.974;2023-08-06T05:34:56;100858.47;;;16.53;97.38
71476;BME280;59286;59.274;17.974;2023-08-06T05:37:21;100869.34;;;16.72;96.63
71476;BME280;59286;59.274;17.974;2023-08-06T05:39:47;100869.22;;;16.80;95.58
71476;BME280;59286;59.274;17.974;2023-08-06T05:42:12;100865.28;;;16.86;94.85
71476;BME280;59286;59.274;17.974;2023-08-06T05:44:37;100861.09;;;16.85;93.77
71476;BME280;59286;59.274;17.974;2023-08-06T05:47:03;100865.28;;;16.98;94.97
71476;BME280;59286;59.274;17.974;2023-08-06T05:49:28;100855.34;;;17.19;93.72
71476;BME280;59286;59.274;17.974;2023-08-06T05:51:54;100853.81;;;17.18;93.62
71476;BME280;59286;59.274;17.974;2023-08-06T05:54:19;100854.72;;;17.22;93.85
71476;BME280;59286;59.274;17.974;2023-08-06T05:56:45;100847.41;;;17.31;93.86
71476;BME280;59286;59.274;17.974;2023-08-06T05:59:10;100854.25;;;17.32;92.91
71476;BME280;59286;59.274;17.974;2023-08-06T06:01:35;100860.09;;;17.38;92.58
71476;BME280;59286;59.274;17.974;2023-08-06T06:04:01;100851.28;;;17.34;92.89
71476;BME280;59286;59.274;17.974;2023-08-06T06:06:26;100857.44;;;17.38;92.42
71476;BME280;59286;59.274;17.974;2023-08-06T06:08:52;100861.66;;;17.39;92.71
71476;BME280;59286;59.274;17.974;2023-08-06T06:11:17;100844.63;;;17.40;92.51
71476;BME280;59286;59.274;17.974;2023-08-06T06:13:46;100843.44;;;17.37;91.71
71476;BME280;59286;59.274;17.974;2023-08-06T06:16:12;100844.97;;;17.38;91.27
71476;BME280;59286;59.274;17.974;2023-08-06T06:18:37;100845.66;;;17.48;90.71
71476;BME280;59286;59.274;17.974;2023-08-06T06:21:02;100839.34;;;17.52;91.70
71476;BME280;59286;59.274;17.974;2023-08-06T06:23:28;100838.34;;;17.57;90.46
71476;BME280;59286;59.274;17.974;2023-08-06T06:25:53;100839.66;;;17.63;90.40
71476;BME280;59286;59.274;17.974;2023-08-06T06:28:19;100847.72;;;17.66;89.73
71476;BME280;59286;59.274;17.974;2023-08-06T06:30:45;100840.44;;;17.75;89.88
71476;BME280;59286;59.274;17.974;2023-08-06T06:33:10;100838.50;;;17.88;88.42
71476;BME280;59286;59.274;17.974;2023-08-06T06:35:36;100828.88;;;17.95;89.46
71476;BME280;59286;59.274;17.974;2023-08-06T06:38:02;100804.38;;;17.86;88.07
71476;BME280;59286;59.274;17.974;2023-08-06T06:40:27;100825.41;;;18.07;88.18
71476;BME280;59286;59.274;17.974;2023-08-06T06:42:53;100817.75;;;18.05;87.15
71476;BME280;59286;59.274;17.974;2023-08-06T06:45:18;100813.19;;;18.33;86.82
71476;BME280;59286;59.274;17.974;2023-08-06T06:47:43;100814.38;;;18.79;86.49
71476;BME280;59286;59.274;17.974;2023-08-06T06:50:09;100812.63;;;19.18;84.62
71476;BME280;59286;59.274;17.974;2023-08-06T06:52:34;100811.66;;;19.26;83.96
71476;BME280;59286;59.274;17.974;2023-08-06T06:55:00;100798.75;;;18.93;81.71
71476;BME280;59286;59.274;17.974;2023-08-06T06:57:26;100789.09;;;18.85;82.01
71476;BME280;59286;59.274;17.974;2023-08-06T06:59:51;100804.63;;;18.68;82.69
71476;BME280;59286;59.274;17.974;2023-08-06T07:02:16;100815.41;;;18.59;82.64
71476;BME280;59286;59.274;17.974;2023-08-06T07:04:42;100799.28;;;18.52;82.67
71476;BME280;59286;59.274;17.974;2023-08-06T07:07:07;100790.53;;;18.36;82.33
71476;BME280;59286;59.274;17.974;2023-08-06T07:09:32;100803.34;;;18.34;82.66
71476;BME280;59286;59.274;17.974;2023-08-06T07:11:58;100800.28;;;18.32;82.70
71476;BME280;59286;59.274;17.974;2023-08-06T07:14:25;100802.75;;;18.25;82.57
71476;BME280;59286;59.274;17.974;2023-08-06T07:16:51;100800.97;;;18.29;82.29
71476;BME280;59286;59.274;17.974;2023-08-06T07:19:16;100797.34;;;18.37;82.54
71476;BME280;59286;59.274;17.974;2023-08-06T07:21:41;100798.34;;;18.45;82.04
71476;BME280;59286;59.274;17.974;2023-08-06T07:24:07;100794.84;;;18.56;81.33
71476;BME280;59286;59.274;17.974;2023-08-06T07:26:32;100798.63;;;18.55;79.98
71476;BME280;59286;59.274;17.974;2023-08-06T07:28:57;100795.28;;;18.58;81.32
71476;BME280;59286;59.274;17.974;2023-08-06T07:31:22;100801.97;;;18.68;81.91
71476;BME280;59286;59.274;17.974;2023-08-06T07:33:48;100808.88;;;18.72;80.10
71476;BME280;59286;59.274;17.974;2023-08-06T07:36:14;100802.38;;;18.85;80.49
71476;BME280;59286;59.274;17.974;2023-08-06T07:38:40;100807.94;;;18.96;80.37
71476;BME280;59286;59.274;17.974;2023-08-06T07:41:06;100797.03;;;19.16;79.50
71476;BME280;59286;59.274;17.974;2023-08-06T07:43:32;100787.56;;;19.35;79.19
71476;BME280;59286;59.274;17.974;2023-08-06T07:45:58;100802.22;;;19.44;75.58
71476;BME280;59286;59.274;17.974;2023-08-06T07:48:25;100804.31;;;19.35;76.82
71476;BME280;59286;59.274;17.974;2023-08-06T07:50:57;100799.41;;;19.21;77.83
71476;BME280;59286;59.274;17.974;2023-08-06T07:53:23;100795.78;;;19.29;75.84
71476;BME280;59286;59.274;17.974;2023-08-06T07:55:52;100796.47;;;19.26;76.27
71476;BME280;59286;59.274;17.974;2023-08-06T07:58:19;100808.91;;;19.38;77.69
71476;BME280;59286;59.274;17.974;2023-08-06T08:00:44;100787.41;;;19.27;76.44
71476;BME280;59286;59.274;17.974;2023-08-06T08:03:14;100799.28;;;19.49;76.67
71476;BME280;59286;59.274;17.974;2023-08-06T08:05:41;100786.19;;;19.41;75.48
71476;BME280;59286;59.274;17.974;2023-08-06T08:08:07;100797.38;;;19.50;75.72
71476;BME280;59286;59.274;17.974;2023-08-06T08:10:33;100791.78;;;19.55;75.25
71476;BME280;59286;59.274;17.974;2023-08-06T08:13:00;100797.53;;;19.57;73.62
71476;BME280;59286;59.274;17.974;2023-08-06T08:15:25;100793.34;;;19.56;74.62
71476;BME280;59286;59.274;17.974;2023-08-06T08:17:51;100802.72;;;19.69;74.80
71476;BME280;59286;59.274;17.974;2023-08-06T08:20:17;100795.00;;;19.64;73.38
71476;BME280;59286;59.274;17.974;2023-08-06T08:22:44;100800.03;;;19.50;75.06
71476;BME280;59286;59.274;17.974;2023-08-06T08:25:10;100801.28;;;19.37;74.58
71476;BME280;59286;59.274;17.974;2023-08-06T08:27:35;100808.13;;;19.38;74.96
71476;BME280;59286;59.274;17.974;2023-08-06T08:30:00;100823.84;;;19.43;75.59
71476;BME280;59286;59.274;17.974;2023-08-06T08:32:26;100820.25;;;19.35;76.90
71476;BME280;59286;59.274;17.974;2023-08-06T08:34:51;100827.16;;;19.40;77.16
71476;BME280;59286;59.274;17.974;2023-08-06T08:37:16;100831.03;;;19.42;77.92
71476;BME280;59286;59.274;17.974;2023-08-06T08:39:42;100822.63;;;19.40;76.58
71476;BME280;59286;59.274;17.974;2023-08-06T08:42:08;100812.41;;;19.26;74.46
71476;BME280;59286;59.274;17.974;2023-08-06T08:44:35;100822.38;;;19.29;75.73
71476;BME280;59286;59.274;17.974;2023-08-06T08:47:05;100812.84;;;19.28;75.01
71476;BME280;59286;59.274;17.974;2023-08-06T08:49:31;100812.78;;;19.41;77.17
71476;BME280;59286;59.274;17.974;2023-08-06T08:51:58;100806.25;;;19.38;77.12
71476;BME280;59286;59.274;17.974;2023-08-06T08:54:25;100805.38;;;19.50;74.85
71476;BME280;59286;59.274;17.974;2023-08-06T08:56:51;100794.09;;;19.37;75.18
71476;BME280;59286;59.274;17.974;2023-08-06T08:59:16;100807.47;;;19.41;75.48
71476;BME280;59286;59.274;17.974;2023-08-06T09:01:44;100790.59;;;19.33;75.76
71476;BME280;59286;59.274;17.974;2023-08-06T09:04:11;100785.16;;;19.29;75.20
71476;BME280;59286;59.274;17.974;2023-08-06T09:06:38;100779.59;;;19.35;75.36
71476;BME280;59286;59.274;17.974;2023-08-06T09:09:12;100788.91;;;19.28;76.03
71476;BME280;59286;59.274;17.974;2023-08-06T09:11:43;100783.81;;;19.36;76.83
71476;BME280;59286;59.274;17.974;2023-08-06T09:14:08;100764.56;;;19.26;75.72
71476;BME280;59286;59.274;17.974;2023-08-06T09:16:35;100777.28;;;19.17;76.44
71476;BME280;59286;59.274;17.974;2023-08-06T09:19:09;100776.00;;;19.11;77.75
71476;BME280;59286;59.274;17.974;2023-08-06T09:21:42;100771.13;;;19.13;78.70
71476;BME280;59286;59.274;17.974;2023-08-06T09:24:17;100758.34;;;19.19;79.82
71476;BME280;59286;59.274;17.974;2023-08-06T09:26:44;100753.72;;;19.16;78.69
71476;BME280;59286;59.274;17.974;2023-08-06T09:29:11;100744.97;;;19.15;77.19
71476;BME280;59286;59.274;17.974;2023-08-06T09:31:50;100738.63;;;19.20;77.00
71476;BME280;59286;59.274;17.974;2023-08-06T09:34:20;100719.66;;;19.21;76.54
71476;BME280;59286;59.274;17.974;2023-08-06T09:36:53;100712.91;;;19.24;77.18
71476;BME280;59286;59.274;17.974;2023-08-06T09:39:21;100715.31;;;19.13;77.03
71476;BME280;59286;59.274;17.974;2023-08-06T09:41:47;100703.00;;;19.24;75.87
71476;BME280;59286;59.274;17.974;2023-08-06T09:44:17;100706.34;;;19.37;75.95
71476;BME280;59286;59.274;17.974;2023-08-06T09:46:51;100701.19;;;19.28;74.39
71476;BME280;59286;59.274;17.974;2023-08-06T09:49:21;100689.03;;;19.08;76.16
71476;BME280;59286;59.274;17.974;2023-08-06T09:51:47;100672.09;;;18.97;77.36
71476;BME280;59286;59.274;17.974;2023-08-06T09:54:16;100663.97;;;18.90;79.13
71476;BME280;59286;59.274;17.974;2023-08-06T09:56:42;100662.84;;;18.91;78.36
71476;BME280;59286;59.274;17.974;2023-08-06T09:59:08;100653.47;;;18.78;77.95
71476;BME280;59286;59.274;17.974;2023-08-06T10:01:34;100651.88;;;18.74;79.74
71476;BME280;59286;59.274;17.974;2023-08-06T10:04:00;100644.00;;;18.62;80.00
71476;BME280;59286;59.274;17.974;2023-08-06T10:06:28;100629.03;;;18.38;81.00
71476;BME280;59286;59.274;17.974;2023-08-06T10:08:53;100621.88;;;18.23;82.04
71476;BME280;59286;59.274;17.974;2023-08-06T10:11:22;100618.09;;;18.24;82.10
71476;BME280;59286;59.274;17.974;2023-08-06T10:13:50;100614.59;;;18.20;82.22
71476;BME280;59286;59.274;17.974;2023-08-06T10:16:18;100602.88;;;18.21;83.47
71476;BME280;59286;59.274;17.974;2023-08-06T10:18:45;100604.81;;;18.24;84.57
71476;BME280;59286;59.274;17.974;2023-08-06T10:21:11;100592.19;;;18.02;85.87
71476;BME280;59286;59.274;17.974;2023-08-06T10:23:40;100589.38;;;17.95;86.74
71476;BME280;59286;59.274;17.974;2023-08-06T10:26:05;100571.56;;;17.95;87.33
71476;BME280;59286;59.274;17.974;2023-08-06T10:28:35;100572.09;;;18.01;88.31
71476;BME280;59286;59.274;17.974;2023-08-06T10:31:01;100564.56;;;18.03;89.40
71476;BME280;59286;59.274;17.974;2023-08-06T10:33:40;100546.22;;;17.98;88.85
71476;BME280;59286;59.274;17.974;2023-08-06T10:36:08;100542.13;;;18.00;90.69
71476;BME280;59286;59.274;17.974;2023-08-06T10:38:47;100543.84;;;17.93;90.89
71476;BME280;59286;59.274;17.974;2023-08-06T10:41:27;100547.13;;;17.86;90.77
71476;BME280;59286;59.274;17.974;2023-08-06T10:44:05;100555.16;;;17.90;91.46
71476;BME280;59286;59.274;17.974;2023-08-06T10:46:31;100569.34;;;17.82;91.62
71476;BME280;59286;59.274;17.974;2023-08-06T10:48:56;100571.50;;;17.76;92.85
71476;BME280;59286;59.274;17.974;2023-08-06T10:51:21;100562.59;;;17.69;92.95
71476;BME280;59286;59.274;17.974;2023-08-06T10:53:48;100581.31;;;17.76;92.75
71476;BME280;59286;59.274;17.974;2023-08-06T10:56:19;100575.06;;;17.68;93.55
71476;BME280;59286;59.274;17.974;2023-08-06T10:58:45;100576.53;;;17.66;93.21
71476;BME280;59286;59.274;17.974;2023-08-06T11:01:11;100591.25;;;17.63;92.80
71476;BME280;59286;59.274;17.974;2023-08-06T11:03:37;100581.63;;;17.59;94.34
71476;BME280;59286;59.274;17.974;2023-08-06T11:06:04;100582.59;;;17.51;95.74
71476;BME280;59286;59.274;17.974;2023-08-06T11:08:34;100601.34;;;17.45;96.55
71476;BME280;59286;59.274;17.974;2023-08-06T11:11:16;100617.88;;;17.27;99.46
71476;BME280;59286;59.274;17.974;2023-08-06T11:13:42;100607.69;;;17.13;100.00
71476;BME280;59286;59.274;17.974;2023-08-06T11:16:10;100585.31;;;16.99;100.00
71476;BME280;59286;59.274;17.974;2023-08-06T11:18:36;100576.44;;;16.91;100.00
71476;BME280;59286;59.274;17.974;2023-08-06T11:21:02;100583.50;;;16.87;100.00
71476;BME280;59286;59.274;17.974;2023-08-06T11:23:28;100589.47;;;16.84;100.00
71476;BME280;59286;59.274;17.974;2023-08-06T11:25:56;100613.38;;;16.88;100.00
71476;BME280;59286;59.274;17.974;2023-08-06T11:28:22;100612.75;;;16.79;100.00
71476;BME280;59286;59.274;17.974;2023-08-06T11:30:48;100626.31;;;16.77;100.00
71476;BME280;59286;59.274;17.974;2023-08-06T11:33:14;100614.66;;;16.66;100.00
71476;BME280;59286;59.274;17.974;2023-08-06T11:35:40;100614.41;;;16.71;100.00
71476;BME280;59286;59.274;17.974;2023-08-06T11:38:06;100613.97;;;16.69;100.00
71476;BME280;59286;59.274;17.974;2023-08-06T11:40:32;100607.94;;;16.69;100.00
71476;BME280;59286;59.274;17.974;2023-08-06T11:42:58;100605.16;;;16.77;100.00
71476;BME280;59286;59.274;17.974;2023-08-06T11:45:24;100587.50;;;16.69;100.00
71476;BME280;59286;59.274;17.974;2023-08-06T11:47:50;100595.00;;;16.67;100.00
71476;BME280;59286;59.274;17.974;2023-08-06T11:50:25;100595.69;;;16.64;100.00
71476;BME280;59286;59.274;17.974;2023-08-06T11:52:54;100600.31;;;16.67;100.00
71476;BME280;59286;59.274;17.974;2023-08-06T11:55:23;100590.28;;;16.61;100.00
71476;BME280;59286;59.274;17.974;2023-08-06T11:57:49;100582.59;;;16.56;100.00
71476;BME280;59286;59.274;17.974;2023-08-06T12:00:14;100590.44;;;16.52;100.00
71476;BME280;59286;59.274;17.974;2023-08-06T12:02:43;100591.41;;;16.48;100.00
71476;BME280;59286;59.274;17.974;2023-08-06T12:07:37;100589.09;;;16.46;100.00
71476;BME280;59286;59.274;17.974;2023-08-06T12:10:03;100583.34;;;16.44;100.00
71476;BME280;59286;59.274;17.974;2023-08-06T12:12:28;100561.53;;;16.35;100.00
71476;BME280;59286;59.274;17.974;2023-08-06T12:14:54;100571.56;;;16.41;100.00
71476;BME280;59286;59.274;17.974;2023-08-06T12:17:20;100553.38;;;16.40;100.00
71476;BME280;59286;59.274;17.974;2023-08-06T12:19:46;100554.03;;;16.37;100.00
71476;BME280;59286;59.274;17.974;2023-08-06T12:22:12;100561.75;;;16.42;100.00
71476;BME280;59286;59.274;17.974;2023-08-06T12:24:42;100555.25;;;16.52;100.00
71476;BME280;59286;59.274;17.974;2023-08-06T12:27:08;100549.88;;;16.48;100.00
71476;BME280;59286;59.274;17.974;2023-08-06T12:29:34;100541.59;;;16.50;100.00
71476;BME280;59286;59.274;17.974;2023-08-06T12:31:59;100535.03;;;16.47;100.00
71476;BME280;59286;59.274;17.974;2023-08-06T12:34:25;100535.50;;;16.49;100.00
71476;BME280;59286;59.274;17.974;2023-08-06T12:36:50;100546.75;;;16.46;100.00